AirNav   Bose Proflight Series 2 Wireless viation Headset
 
 645 users online  

NJ93 Alexanders-Menlo Park Heliport
Menlo Park, New Jersey, USA

GOING TO MENLO PARK?


FAA INFORMATION EFFECTIVE 10 OCTOBER 2019

Location

FAA Identifier: NJ93
Lat/Long: 40-32-50.3750N 074-20-28.5340W
40-32.839583N 074-20.475567W
40.5473264,-74.3412594
(estimated)
Elevation: 82 ft. / 25 m (estimated)
Variation: 12W (1985)
Time zone: UTC -4 (UTC -5 during Standard Time)
Zip code: 08837

Heliport Operations

Heliport use: Private use. Permission required prior to landing
Activation date: 04/1972
Control tower: no
ARTCC: NEW YORK CENTER
FSS: MILLVILLE FLIGHT SERVICE STATION
Attendance: MON-SAT 0800-2200
Wind indicator: yes
Segmented circle: no

Heliport Communications

WX AWOS-3 at LDJ (6 nm NE): 124.025 (908-862-7383)
WX ASOS at EWR (12 nm NE): PHONE 973-621-2892
WX AWOS-3 at MMU (15 nm N): PHONE 973-290-0135
WX ASOS at SMQ (16 nm W): 120.6 (908-722-2139)
WX AWOS-3PT at JRB (18 nm NE): 128.175 (212-425-1534)
WX ASOS at CDW (20 nm N): 135.5 (973-575-4417)

Nearby radio navigation aids

VOR radial/distance  VOR name  Freq  Var
COLr341/16.4COLTS NECK VOR/DME115.4011W
SBJr107/18.4SOLBERG VOR/DME112.9010W
CRIr270/20.7CANARSIE VOR/DME112.3011W
RBVr029/21.9ROBBINSVILLE VORTAC113.8010W
TEBr226/22.1TETERBORO VOR/DME108.4011W
LGAr249/25.8LA GUARDIA VOR/DME113.1012W
JFKr271/26.5KENNEDY VOR/DME115.9012W
BWZr136/26.6BROADWAY VOR/DME114.2011W
ARDr066/31.3YARDLEY VOR/DME108.2010W
SAXr175/32.5SPARTA VORTAC115.7011W
GXUr032/34.3MC GUIRE VORTAC110.6012W
STWr149/36.0STILLWATER VOR/DME109.6011W

 
NDB name  Hdg/Dist  Freq  Var  ID
CHATHAM174/12.325413WCAT -.-. .- -
LAKEHURST010/30.139611WNEL -. . .-..

Heliport Services

Airframe service: NONE
Powerplant service: NONE

Runway Information

Helipad H1

Dimensions: 42 x 42 ft. / 13 x 13 m
Surface: turf, in fair condition
ELEVATED ROOFTOP PAD.
Latitude: 40-32.839583N
Longitude: 074-20.475567W
Elevation: 82.0 ft.
Traffic pattern: leftleft
Markings: none, in fair condition

Heliport Ownership and Management from official FAA records

Ownership: Privately-owned
Owner: ALEXANDER'S INC
733 LEXINGTON AVE.
NEW YORK, NY 10022
Phone 212-572-8300
Manager: BRUCE R. FARKAS
NEW YORK, NY 10022
Phone 212-572-8300

Additional Remarks

FOR CD CTC NEW YORK APCH AT 800-645-3206.

Instrument Procedures

There are no published instrument procedures at NJ93.

Some nearby airports with instrument procedures:

KLDJ - Linden Airport (6 nm NE)
KEWR - Newark Liberty International Airport (12 nm NE)
47N - Central Jersey Regional Airport (12 nm W)
3N6 - Old Bridge Airport (13 nm S)
KMMU - Morristown Municipal Airport (15 nm N)
KSMQ - Somerset Airport (16 nm W)
39N - Princeton Airport (17 nm SW)
KJRB - Downtown Manhattan/Wall Street Heliport (18 nm NE)
N51 - Solberg-Hunterdon Airport (18 nm W)
KJRA - West 30th St Heliport (20 nm NE)
 
Loc | Ops | Rwys | IFR | FBO | Links
Com | Nav | Svcs | Stats | Notes
Area around NJ93 (Alexanders-Menlo Park Heliport)
 
Road maps at: MapQuest Bing Google
 
Aerial photo
No photo
 
Sectional chart

 
Airport distance calculator
Flying to Alexanders-Menlo Park Heliport? Find the distance to fly.

From to NJ93

Sunrise and sunset
Times for 20-Oct-2019
 Local
(UTC-4)
 Zulu
(UTC)
Morning civil twilight06:4710:47
Sunrise07:1511:15
Sunset18:1022:10
Evening civil twilight18:3722:37

Current date and time
Zulu (UTC)  21-Oct-2019 03:55:36
Local (UTC-4)  20-Oct-2019 23:55:36
 
METAR
KLDJ 
6nm NE 
210335Z AUTO 04005KT 10SM OVC010 12/10 A3000 RMK AO2 T01180102
KEWR 
11nm NE 
210333Z 03005KT 10SM -RA OVC015 12/10 A3000 RMK AO2 P0000 T01170100 $
KMMU 
15nm N 
210335Z AUTO 36005KT 10SM DZ SCT009 BKN050 OVC065 11/11 A3000 RMK AO2
KSMQ 
15nm W 
ASOS 120.60 908-722-2139
210329Z AUTO VRB04KT 10SM FEW013 OVC048 12/11 A2996 RMK AO2 T01220106
KJRB 
18nm NE 
210256Z AUTO 03008G17KT OVC010 13/11 A2999 RMK AO2 SLP156 T01280111 58001 PWINO
TAF
KEWR 
11nm NE 
202037Z 2021/2124 03004KT 3SM RA SCT004 SCT015 BKN035 TEMPO 2021/2024 3SM RA BKN004 BKN015 FM210000 03007KT P6SM -RA OVC030 FM210300 03009G15KT P6SM -RA BKN030 FM210400 03009G15KT P6SM BKN030 FM210900 01009G15KT P6SM SCT030 FM211800 04008KT P6SM FEW030 FM212200 06006KT P6SM SKC
NOTAMs
Click for the latest NOTAMs
NOTAMs are issued by the DoD/FAA and will open in a separate window not controlled by AirNav.

 

 
 

Would you like to see your business listed on this page?

 If your business provides an interesting product or service to pilots, flight crews, aircraft, or users of the Alexanders-Menlo Park Heliport, you should consider listing it here.  To start the listing process, click on the button below
 
Add a business
 

Other Pages about Alexanders-Menlo Park Heliport

Update a link
 
Copyright © AirNav, LLC. All rights reserved. Privacy Policy  Contact